createdAt,value
2018-04-25T00:01:11.983Z,10.57
2018-04-25T00:03:37.843Z,11.13
2018-04-25T00:06:03.728Z,11.87
2018-04-25T00:08:29.609Z,11.80
2018-04-25T00:10:55.423Z,10.30
2018-04-25T00:13:21.516Z,10.63
2018-04-25T00:15:47.467Z,11.30
2018-04-25T00:18:13.381Z,11.40
2018-04-25T00:20:39.280Z,10.70
2018-04-25T00:23:05.160Z,12.80
2018-04-25T00:25:31.077Z,11.90
2018-04-25T00:27:56.921Z,12.00
2018-04-25T00:30:22.746Z,12.17
2018-04-25T00:32:48.637Z,11.47
2018-04-25T00:35:14.506Z,13.30
2018-04-25T00:37:40.345Z,12.80
2018-04-25T00:40:06.193Z,12.57
2018-04-25T00:42:32.023Z,11.83
2018-04-25T00:44:57.865Z,12.50
2018-04-25T00:47:23.755Z,12.40
2018-04-25T00:49:49.660Z,12.63
2018-04-25T00:52:15.518Z,12.37
2018-04-25T00:54:41.413Z,12.00
2018-04-25T00:57:07.395Z,13.70
2018-04-25T00:59:33.316Z,13.67
2018-04-25T01:01:59.257Z,13.03
2018-04-25T01:04:25.171Z,12.30
2018-04-25T01:06:51.034Z,12.43
2018-04-25T01:09:16.939Z,12.90
2018-04-25T01:11:42.836Z,12.07
2018-04-25T01:14:08.971Z,11.73
2018-04-25T01:16:34.867Z,12.63
2018-04-25T01:19:00.739Z,12.67
2018-04-25T01:21:26.625Z,12.50
2018-04-25T01:23:52.513Z,12.27
2018-04-25T01:26:18.363Z,12.80
2018-04-25T01:28:59.168Z,12.03
2018-04-25T01:31:25.037Z,12.77
2018-04-25T01:33:57.697Z,12.17
2018-04-25T01:36:38.484Z,11.83
2018-04-25T01:39:08.345Z,12.73
2018-04-25T01:41:34.231Z,13.07
2018-04-25T01:44:00.110Z,12.60
2018-04-25T01:46:26.005Z,13.43
2018-04-25T01:48:54.821Z,13.70
2018-04-25T01:51:26.908Z,13.77
2018-04-25T01:53:58.919Z,13.27
2018-04-25T01:56:31.026Z,13.73
2018-04-25T01:59:02.992Z,13.20
2018-04-25T02:01:28.794Z,13.47
2018-04-25T02:03:55.655Z,12.30
2018-04-25T02:06:21.492Z,12.93
2018-04-25T02:08:47.399Z,12.97
2018-04-25T02:11:13.273Z,12.73
2018-04-25T02:13:39.105Z,13.63
2018-04-25T02:16:05.036Z,12.87
2018-04-25T02:18:33.895Z,13.10
2018-04-25T02:20:59.738Z,12.90
2018-04-25T02:42:35.769Z,12.47
2018-04-25T02:45:01.830Z,11.90
2018-04-25T02:47:27.679Z,13.17
2018-04-25T02:49:53.517Z,13.87
2018-04-25T02:52:19.390Z,13.23
2018-04-25T02:54:45.232Z,14.37
2018-04-25T02:57:11.070Z,14.23
2018-04-25T02:59:36.944Z,13.17
2018-04-25T03:02:02.826Z,13.50
2018-04-25T03:04:28.675Z,13.13
2018-04-25T03:06:54.527Z,13.23
2018-04-25T03:09:20.409Z,13.57
2018-04-25T03:11:46.266Z,12.60
2018-04-25T03:14:12.170Z,12.70
2018-04-25T03:16:38.052Z,12.63
2018-04-25T03:19:03.924Z,13.63
2018-04-25T03:21:29.765Z,13.00
2018-04-25T03:23:55.630Z,13.23
2018-04-25T03:26:21.544Z,14.17
2018-04-25T03:28:47.373Z,13.57
2018-04-25T03:31:13.244Z,16.73
2018-04-25T03:33:39.047Z,21.13
2018-04-25T03:36:04.875Z,20.97
2018-04-25T03:38:30.733Z,20.57
2018-04-25T03:40:56.585Z,21.00
2018-04-25T03:43:22.431Z,19.70
2018-04-25T03:45:48.327Z,18.27
2018-04-25T03:48:14.160Z,18.47
2018-04-25T03:50:40.020Z,17.47
2018-04-25T03:53:05.865Z,20.00
2018-04-25T03:55:31.730Z,20.33
2018-04-25T03:57:57.548Z,20.00
2018-04-25T04:00:23.450Z,19.87
2018-04-25T04:02:49.276Z,20.07
2018-04-25T04:05:15.127Z,20.13
2018-04-25T04:07:40.985Z,19.47
2018-04-25T04:10:06.889Z,19.77
2018-04-25T04:12:32.725Z,20.27
2018-04-25T04:14:58.539Z,18.33
2018-04-25T04:17:24.417Z,19.20
2018-04-25T04:19:50.318Z,18.77
2018-04-25T04:22:16.193Z,18.70
2018-04-25T04:24:42.064Z,18.83
2018-04-25T04:27:07.934Z,17.63
2018-04-25T04:29:33.796Z,18.33
2018-04-25T04:31:59.693Z,17.77
2018-04-25T04:34:25.633Z,17.13
2018-04-25T04:36:51.538Z,18.27
2018-04-25T04:39:17.369Z,17.00
2018-04-25T04:41:43.434Z,16.43
2018-04-25T04:44:09.333Z,17.37
2018-04-25T04:46:35.172Z,16.30
2018-04-25T04:49:01.024Z,15.80
2018-04-25T04:51:26.888Z,16.53
2018-04-25T04:53:52.731Z,17.57
2018-04-25T04:56:18.598Z,15.10
2018-04-25T04:58:44.473Z,16.00
2018-04-25T05:01:10.311Z,16.37
2018-04-25T05:03:36.180Z,14.90
2018-04-25T05:06:02.055Z,15.50
2018-04-25T05:08:27.967Z,15.03
2018-04-25T05:10:53.767Z,15.50
2018-04-25T05:13:19.587Z,13.47
2018-04-25T05:15:45.500Z,14.50
2018-04-25T05:18:11.422Z,14.63
2018-04-25T05:20:37.340Z,14.97
2018-04-25T05:23:03.238Z,14.03
2018-04-25T05:25:29.066Z,13.17
2018-04-25T05:27:54.934Z,14.60
2018-04-25T05:30:20.785Z,14.37
2018-04-25T05:32:46.676Z,13.77
2018-04-25T05:35:12.505Z,13.40
2018-04-25T05:37:38.376Z,13.30
2018-04-25T05:40:05.220Z,13.27
2018-04-25T05:42:31.055Z,12.07
2018-04-25T05:44:56.997Z,13.37
2018-04-25T05:47:22.849Z,11.93
2018-04-25T05:49:48.741Z,11.47
2018-04-25T05:52:14.580Z,12.10
2018-04-25T05:54:40.421Z,12.83
2018-04-25T05:57:06.300Z,12.70
2018-04-25T05:59:32.183Z,11.67
2018-04-25T06:01:58.046Z,11.90
2018-04-25T06:04:23.965Z,11.47
2018-04-25T06:06:49.829Z,12.13
2018-04-25T06:09:15.719Z,12.03
2018-04-25T06:11:41.594Z,11.50
2018-04-25T06:14:07.479Z,12.10
2018-04-25T06:16:33.314Z,11.57
2018-04-25T06:18:59.211Z,10.80
2018-04-25T06:21:25.082Z,11.23
2018-04-25T06:23:50.949Z,11.50
2018-04-25T06:26:16.829Z,11.20
2018-04-25T06:28:49.722Z,10.67
2018-04-25T06:31:15.635Z,10.80
2018-04-25T06:33:41.477Z,10.40
2018-04-25T06:36:07.663Z,9.87
2018-04-25T06:38:33.555Z,9.43
2018-04-25T06:40:59.401Z,10.13
2018-04-25T06:43:25.247Z,10.07
2018-04-25T06:45:51.124Z,10.40
2018-04-25T06:48:17.009Z,9.17
2018-04-25T06:50:42.940Z,8.17
2018-04-25T06:53:08.823Z,9.07
2018-04-25T06:55:34.667Z,8.27
2018-04-25T06:58:00.514Z,9.40
2018-04-25T07:00:26.347Z,8.70
2018-04-25T07:02:52.257Z,8.40
2018-04-25T07:05:18.095Z,7.90
2018-04-25T07:07:43.934Z,8.13
2018-04-25T07:10:09.811Z,7.33
2018-04-25T07:12:35.645Z,7.83
2018-04-25T07:15:01.480Z,7.33
2018-04-25T07:17:27.355Z,7.10
2018-04-25T07:19:53.228Z,7.30
2018-04-25T07:22:19.085Z,7.33
2018-04-25T07:24:44.963Z,7.17
2018-04-25T07:27:10.815Z,7.17
2018-04-25T07:29:36.810Z,6.60
2018-04-25T07:32:02.629Z,7.50
2018-04-25T07:34:28.472Z,7.40
2018-04-25T07:36:54.308Z,7.43
2018-04-25T07:39:20.171Z,6.87
2018-04-25T07:41:46.040Z,6.33
2018-04-25T07:44:11.952Z,6.50
2018-04-25T07:46:37.783Z,6.93
2018-04-25T07:49:03.668Z,5.90
2018-04-25T07:51:29.549Z,5.60
2018-04-25T07:53:55.377Z,5.73
2018-04-25T07:56:21.231Z,6.20
2018-04-25T07:58:47.109Z,5.47
2018-04-25T08:01:12.955Z,6.37
2018-04-25T08:03:38.836Z,5.97
2018-04-25T08:06:04.724Z,6.07
2018-04-25T08:08:30.500Z,5.93
2018-04-25T08:10:56.354Z,6.67
2018-04-25T08:13:28.361Z,5.73
2018-04-25T08:16:00.571Z,6.23
2018-04-25T08:18:32.596Z,5.43
2018-04-25T08:21:15.282Z,5.50
2018-04-25T08:23:41.254Z,5.87
2018-04-25T08:26:07.069Z,5.60
2018-04-25T08:28:32.935Z,6.43
2018-04-25T08:30:58.801Z,6.47
2018-04-25T08:33:24.740Z,6.60
2018-04-25T08:35:50.718Z,6.22
2018-04-25T08:38:16.555Z,6.53
2018-04-25T08:40:42.440Z,5.85
2018-04-25T08:43:08.314Z,5.87
2018-04-25T08:45:34.172Z,6.40
2018-04-25T08:48:00.016Z,6.57
2018-04-25T08:50:25.874Z,6.35
2018-04-25T08:52:51.692Z,6.60
2018-04-25T08:55:17.563Z,5.97
2018-04-25T08:57:43.426Z,5.62
2018-04-25T09:00:09.288Z,5.78
2018-04-25T09:02:35.208Z,5.85
2018-04-25T09:05:01.049Z,6.22
2018-04-25T09:07:26.932Z,6.03
2018-04-25T09:09:52.748Z,6.00
2018-04-25T09:12:18.583Z,6.47
2018-04-25T09:14:44.506Z,5.72
2018-04-25T09:17:10.356Z,5.85
2018-04-25T09:19:36.209Z,6.28
2018-04-25T09:22:02.147Z,6.10
2018-04-25T09:24:28.013Z,6.00
2018-04-25T09:26:53.858Z,5.78
2018-04-25T09:29:19.745Z,5.60
2018-04-25T09:31:45.608Z,5.80
2018-04-25T09:34:11.464Z,6.45
2018-04-25T09:36:37.323Z,5.97
2018-04-25T09:39:03.249Z,5.62
2018-04-25T09:41:29.098Z,5.65
2018-04-25T09:43:54.931Z,5.80
2018-04-25T09:46:20.832Z,5.22
2018-04-25T09:48:46.667Z,5.78
2018-04-25T09:51:12.504Z,5.65
2018-04-25T09:53:38.351Z,6.30
2018-04-25T09:56:04.183Z,5.10
2018-04-25T09:58:30.037Z,5.50
2018-04-25T10:00:56.918Z,5.72
2018-04-25T10:03:22.793Z,5.22
2018-04-25T10:05:48.693Z,5.80
2018-04-25T10:08:14.538Z,5.30
2018-04-25T10:10:40.359Z,4.75
2018-04-25T10:13:06.226Z,5.40
2018-04-25T10:15:32.075Z,5.28
2018-04-25T10:17:57.941Z,5.65
2018-04-25T10:20:23.827Z,5.00
2018-04-25T10:22:49.703Z,5.82
2018-04-25T10:25:15.551Z,5.20
2018-04-25T10:27:41.460Z,5.22
2018-04-25T10:30:07.329Z,5.07
2018-04-25T10:32:33.148Z,5.15
2018-04-25T10:34:59.007Z,5.82
2018-04-25T10:37:24.866Z,5.80
2018-04-25T10:39:50.727Z,5.60
2018-04-25T10:42:16.575Z,5.20
2018-04-25T10:44:42.470Z,4.90
2018-04-25T10:47:08.355Z,5.70
2018-04-25T10:49:34.230Z,5.80
2018-04-25T10:52:00.134Z,5.40
2018-04-25T10:54:25.962Z,5.75
2018-04-25T10:56:51.841Z,5.97
2018-04-25T10:59:17.732Z,5.53
2018-04-25T11:01:43.597Z,5.80
2018-04-25T11:04:09.427Z,5.57
2018-04-25T11:06:35.461Z,5.70
2018-04-25T11:09:01.367Z,5.57
2018-04-25T11:11:27.358Z,5.65
2018-04-25T11:13:53.264Z,5.70
2018-04-25T11:16:19.071Z,5.47
2018-04-25T11:18:44.896Z,5.57
2018-04-25T11:21:10.764Z,5.00
2018-04-25T11:23:36.673Z,5.55
2018-04-25T11:26:02.540Z,5.72
2018-04-25T11:28:28.407Z,5.22
2018-04-25T11:30:54.329Z,4.90
2018-04-25T11:33:20.192Z,5.50
2018-04-25T11:35:46.045Z,5.47
2018-04-25T11:38:12.015Z,5.50
2018-04-25T11:40:37.865Z,5.62
2018-04-25T11:43:03.753Z,4.80
2018-04-25T11:45:29.613Z,5.05
2018-04-25T11:47:55.468Z,5.50
2018-04-25T11:50:21.406Z,5.55
2018-04-25T11:52:47.360Z,5.45
2018-04-25T11:55:13.223Z,5.65
2018-04-25T11:57:39.104Z,5.05
2018-04-25T12:00:04.990Z,4.95
2018-04-25T12:02:30.891Z,5.25
2018-04-25T12:04:56.946Z,5.20
2018-04-25T12:07:22.742Z,5.37
2018-04-25T12:09:48.609Z,5.55
2018-04-25T12:12:14.556Z,5.55
2018-04-25T12:14:40.490Z,5.80
2018-04-25T15:24:41.687Z,3.27
2018-04-25T15:27:14.551Z,3.30
2018-04-25T15:29:40.436Z,3.20
2018-04-25T15:32:06.277Z,3.13
2018-04-25T15:34:32.153Z,3.60
2018-04-25T15:36:58.131Z,3.20
2018-04-25T15:41:56.587Z,3.22
2018-04-25T15:44:22.467Z,3.47
2018-04-25T15:46:48.321Z,3.17
2018-04-25T15:49:14.172Z,3.75
2018-04-25T15:51:39.999Z,3.42
2018-04-25T15:54:05.849Z,3.27
2018-04-25T15:56:31.729Z,3.78
2018-04-25T15:58:57.595Z,3.50
2018-04-25T16:01:23.506Z,3.40
2018-04-25T16:03:49.459Z,3.75
2018-04-25T16:06:15.376Z,3.87
2018-04-25T16:08:41.263Z,3.20
2018-04-25T16:11:07.159Z,3.33
2018-04-25T16:13:33.500Z,4.00
2018-04-25T16:15:59.322Z,4.12
2018-04-25T16:18:25.275Z,3.22
2018-04-25T16:20:51.111Z,3.78
2018-04-25T16:23:17.396Z,3.70
2018-04-25T16:25:43.387Z,3.37
2018-04-25T16:28:09.258Z,4.05
2018-04-25T16:30:35.166Z,3.87
2018-04-25T16:33:01.047Z,3.70
2018-04-25T16:35:26.903Z,3.00
2018-04-25T16:37:52.750Z,3.35
2018-04-25T16:40:18.609Z,3.45
2018-04-25T16:42:44.426Z,3.08
2018-04-25T16:45:10.351Z,3.08
2018-04-25T16:47:36.206Z,2.75
2018-04-25T16:50:02.117Z,2.80
2018-04-25T16:52:28.017Z,2.90
2018-04-25T16:54:53.869Z,2.42
2018-04-25T16:57:19.729Z,2.67
2018-04-25T16:59:45.633Z,2.30
2018-04-25T17:02:11.521Z,2.40
2018-04-25T17:04:37.395Z,2.17
2018-04-25T17:07:03.772Z,2.20
2018-04-25T17:09:29.686Z,2.43
2018-04-25T17:11:55.530Z,2.20
2018-04-25T17:14:21.397Z,2.40
2018-04-25T17:16:47.244Z,2.42
2018-04-25T17:19:13.093Z,2.37
2018-04-25T17:21:38.950Z,2.30
2018-04-25T17:24:04.862Z,2.43
2018-04-25T17:26:31.152Z,2.50
2018-04-25T17:28:57.059Z,2.60
2018-04-25T17:31:22.940Z,2.60
2018-04-25T17:33:49.207Z,2.33
2018-04-25T17:36:15.126Z,2.50
2018-04-25T17:38:40.957Z,1.87
2018-04-25T17:41:06.787Z,2.40
2018-04-25T17:43:32.716Z,2.47
2018-04-25T17:45:58.599Z,2.23
2018-04-25T17:48:24.564Z,2.30
2018-04-25T17:50:50.579Z,2.07
2018-04-25T17:53:16.393Z,2.20
2018-04-25T17:55:42.290Z,2.37
2018-04-25T17:58:08.140Z,2.10
2018-04-25T18:00:34.042Z,2.20
2018-04-25T18:02:59.927Z,2.10
2018-04-25T18:05:25.849Z,2.27
2018-04-25T18:07:51.815Z,2.40
2018-04-25T18:10:18.944Z,3.13
2018-04-25T18:12:44.871Z,2.50
2018-04-25T18:15:10.756Z,2.50
2018-04-25T18:17:36.658Z,2.40
2018-04-25T18:20:02.637Z,1.80
2018-04-25T18:22:28.506Z,2.20
2018-04-25T18:24:54.414Z,2.00
2018-04-25T18:27:20.312Z,2.23
2018-04-25T18:29:46.153Z,2.03
2018-04-25T18:32:12.051Z,2.00
2018-04-25T18:34:37.958Z,1.93
2018-04-25T18:37:03.841Z,1.97
2018-04-25T18:39:29.750Z,2.10
2018-04-25T18:41:55.924Z,1.83
2018-04-25T18:44:21.885Z,2.10
2018-04-25T18:46:47.812Z,1.93
2018-04-25T18:49:13.733Z,1.87
2018-04-25T18:51:39.595Z,1.97
2018-04-25T18:54:05.500Z,2.10
2018-04-25T18:56:31.428Z,1.83
2018-04-25T18:58:57.312Z,2.00
2018-04-25T19:01:23.266Z,2.27
2018-04-25T19:03:49.179Z,1.90
2018-04-25T19:06:15.067Z,2.20
2018-04-25T19:08:41.464Z,2.20
2018-04-25T19:11:07.534Z,1.90
2018-04-25T19:13:33.420Z,2.13
2018-04-25T19:15:59.310Z,2.10
2018-04-25T19:18:25.315Z,1.70
2018-04-25T19:20:51.231Z,2.00
2018-04-25T19:23:17.119Z,2.03
2018-04-25T19:25:43.412Z,2.20
2018-04-25T19:28:09.424Z,2.00
2018-04-25T19:30:35.663Z,2.00
2018-04-25T19:33:01.574Z,2.20
2018-04-25T19:35:27.812Z,2.30
2018-04-25T19:37:53.683Z,2.45
2018-04-25T19:40:19.859Z,2.30
2018-04-25T19:42:45.801Z,2.00
2018-04-25T19:45:11.699Z,2.37
2018-04-25T19:47:37.597Z,2.00
2018-04-25T19:50:03.494Z,2.10
2018-04-25T19:52:29.422Z,2.13
2018-04-25T19:54:55.264Z,2.47
2018-04-25T19:57:21.105Z,1.80
2018-04-25T19:59:47.227Z,2.10
2018-04-25T20:02:13.075Z,1.93
2018-04-25T20:04:38.952Z,2.30
2018-04-25T20:07:05.039Z,1.90
2018-04-25T20:09:31.219Z,2.00
2018-04-25T20:11:57.095Z,2.13
2018-04-25T20:14:24.289Z,2.17
2018-04-25T20:16:50.222Z,1.87
2018-04-25T20:19:16.102Z,5.87
2018-04-25T20:21:41.914Z,2.20
2018-04-25T20:24:08.076Z,2.87
2018-04-25T20:26:34.014Z,2.40
2018-04-25T20:28:59.861Z,2.13
2018-04-25T20:31:26.654Z,2.27
2018-04-25T20:33:52.490Z,2.30
2018-04-25T20:36:18.408Z,2.87
2018-04-25T20:38:44.242Z,2.57
2018-04-25T20:41:17.039Z,2.70
2018-04-25T20:43:42.939Z,2.40
2018-04-25T20:46:08.794Z,2.50
2018-04-25T20:48:34.636Z,2.80
2018-04-25T20:51:00.492Z,2.67
2018-04-25T20:53:26.377Z,2.63
2018-04-25T20:55:52.235Z,2.73
2018-04-25T20:58:18.106Z,2.97
2018-04-25T21:00:43.993Z,2.83
2018-04-25T21:03:09.882Z,3.13
2018-04-25T21:05:36.005Z,3.40
2018-04-25T21:08:01.966Z,3.20
2018-04-25T21:10:27.829Z,3.00
2018-04-25T21:12:53.820Z,3.43
2018-04-25T21:15:19.694Z,3.40
2018-04-25T21:17:45.520Z,2.83
2018-04-25T21:20:11.388Z,2.60
2018-04-25T21:22:37.266Z,3.10
2018-04-25T21:25:03.155Z,3.77
2018-04-25T21:27:29.005Z,3.10
2018-04-25T21:29:54.874Z,3.20
2018-04-25T21:32:20.710Z,3.50
2018-04-25T21:34:46.553Z,3.40
2018-04-25T21:37:12.416Z,3.47
2018-04-25T21:39:38.900Z,3.20
2018-04-25T21:42:04.749Z,3.43
2018-04-25T21:44:30.625Z,3.30
2018-04-25T21:46:56.559Z,3.47
2018-04-25T21:49:22.408Z,3.47
2018-04-25T21:51:48.280Z,3.70
2018-04-25T21:54:14.117Z,3.70
2018-04-25T21:56:39.953Z,3.20
2018-04-25T21:59:05.811Z,3.20
2018-04-25T22:01:31.655Z,3.53
2018-04-25T22:03:57.522Z,3.30
2018-04-25T22:06:23.408Z,4.03
2018-04-25T22:08:49.260Z,3.63
2018-04-25T22:11:15.123Z,3.50
2018-04-25T22:13:41.013Z,3.70
2018-04-25T22:16:06.854Z,3.67
2018-04-25T22:18:32.694Z,3.80
2018-04-25T22:20:58.553Z,4.03
2018-04-25T22:23:24.451Z,3.90
2018-04-25T22:25:50.328Z,3.63
2018-04-25T22:28:16.208Z,3.80
2018-04-25T22:30:42.046Z,3.90
2018-04-25T22:33:07.911Z,3.93
2018-04-25T22:35:40.724Z,4.20
2018-04-25T22:38:06.627Z,3.73
2018-04-25T22:40:32.509Z,4.37
2018-04-25T22:42:58.439Z,3.50
2018-04-25T22:45:24.312Z,3.97
2018-04-25T22:47:50.128Z,4.20
2018-04-25T22:50:15.987Z,4.10
2018-04-25T22:52:41.877Z,3.97
2018-04-25T22:55:07.754Z,4.67
2018-04-25T22:57:33.632Z,4.30
2018-04-25T22:59:59.484Z,4.17
2018-04-25T23:02:25.352Z,3.97
2018-04-25T23:04:51.254Z,4.60
2018-04-25T23:07:17.092Z,4.40
2018-04-25T23:09:42.949Z,4.40
2018-04-25T23:12:08.816Z,4.20
2018-04-25T23:14:34.640Z,3.80
2018-04-25T23:17:00.470Z,4.30
2018-04-25T23:19:33.278Z,3.43
2018-04-25T23:21:59.157Z,3.70
2018-04-25T23:24:25.025Z,3.53
2018-04-25T23:26:50.838Z,3.90
2018-04-25T23:29:16.695Z,3.90
2018-04-25T23:31:42.545Z,4.10
2018-04-25T23:34:08.449Z,4.10
2018-04-25T23:36:34.260Z,3.80
2018-04-25T23:39:00.139Z,4.03
2018-04-25T23:41:26.001Z,4.30
2018-04-25T23:43:51.875Z,3.80
2018-04-25T23:46:17.753Z,3.23
2018-04-25T23:48:43.643Z,4.00
2018-04-25T23:51:09.506Z,3.50
2018-04-25T23:53:35.358Z,3.50
2018-04-25T23:56:01.237Z,3.90
2018-04-25T23:58:27.101Z,3.23
